createdAt,value
2022-12-14T00:01:21.439Z,46.39
2022-12-14T00:03:48.770Z,46.15
2022-12-14T00:06:17.186Z,46.32
2022-12-14T00:08:44.351Z,46.45
2022-12-14T00:11:11.259Z,46.59
2022-12-14T00:13:38.502Z,46.23
2022-12-14T00:16:07.431Z,46.40
2022-12-14T00:18:33.995Z,46.48
2022-12-14T00:21:05.523Z,46.42
2022-12-14T00:23:37.098Z,46.48
2022-12-14T00:26:10.668Z,46.44
2022-12-14T00:28:37.723Z,45.92
2022-12-14T00:31:04.785Z,46.35
2022-12-14T00:33:31.869Z,46.29
2022-12-14T00:35:58.822Z,46.19
2022-12-14T00:38:25.940Z,46.22
2022-12-14T00:40:53.568Z,46.40
2022-12-14T00:43:21.704Z,46.21
2022-12-14T00:45:48.358Z,46.14
2022-12-14T00:48:14.949Z,46.45
2022-12-14T00:50:41.461Z,46.63
2022-12-14T00:53:14.790Z,46.24
2022-12-14T00:55:43.556Z,46.35
2022-12-14T00:58:11.929Z,46.19
2022-12-14T01:00:38.872Z,46.00
2022-12-14T01:03:05.934Z,46.25
2022-12-14T01:05:35.037Z,46.05
2022-12-14T01:08:01.825Z,46.26
2022-12-14T01:10:28.964Z,46.10
2022-12-14T01:12:55.281Z,46.22
2022-12-14T01:15:21.897Z,46.29
2022-12-14T01:17:48.292Z,46.06
2022-12-14T01:20:14.692Z,46.39
2022-12-14T01:22:41.166Z,45.95
2022-12-14T01:25:08.044Z,45.98
2022-12-14T01:27:34.511Z,46.15
2022-12-14T01:30:04.203Z,45.99
2022-12-14T01:32:30.963Z,46.39
2022-12-14T01:34:57.450Z,46.02
2022-12-14T01:37:24.045Z,46.19
2022-12-14T01:39:50.574Z,46.00
2022-12-14T01:42:17.186Z,46.14
2022-12-14T01:44:43.443Z,46.19
2022-12-14T01:47:24.407Z,46.10
2022-12-14T01:50:05.355Z,46.15
2022-12-14T01:52:48.686Z,45.84
2022-12-14T01:55:48.988Z,45.90
2022-12-14T01:58:19.906Z,46.10
2022-12-14T02:00:47.946Z,45.90
2022-12-14T02:03:25.967Z,45.64
2022-12-14T02:05:58.202Z,46.17
2022-12-14T02:08:25.659Z,45.97
2022-12-14T02:10:54.572Z,45.92
2022-12-14T02:13:26.911Z,45.97
2022-12-14T02:15:53.716Z,45.85
2022-12-14T02:18:28.636Z,45.85
2022-12-14T02:21:14.584Z,45.95
2022-12-14T02:24:07.728Z,46.00
2022-12-14T02:26:49.480Z,46.16
2022-12-14T02:29:37.327Z,45.97
2022-12-14T02:32:32.247Z,46.13
2022-12-14T02:35:15.290Z,46.21
2022-12-14T02:38:03.143Z,45.86
2022-12-14T02:41:08.458Z,45.71
2022-12-14T02:43:54.108Z,45.60
2022-12-14T02:46:31.467Z,45.95
2022-12-14T02:49:27.195Z,46.07
2022-12-14T02:52:15.495Z,45.89
2022-12-14T02:54:53.087Z,46.30
2022-12-14T02:57:32.078Z,46.06
2022-12-14T03:00:01.973Z,45.77
2022-12-14T03:02:30.936Z,46.10
2022-12-14T03:04:58.936Z,45.78
2022-12-14T03:07:34.221Z,45.92
2022-12-14T03:10:09.087Z,45.70
2022-12-14T03:12:40.181Z,46.04
2022-12-14T03:15:11.565Z,45.73
2022-12-14T03:17:39.934Z,45.84
2022-12-14T03:20:11.526Z,45.93
2022-12-14T03:22:48.091Z,45.83
2022-12-14T03:25:21.304Z,45.85
2022-12-14T03:28:05.935Z,45.95
2022-12-14T03:30:58.971Z,46.10
2022-12-14T03:33:25.573Z,46.04
2022-12-14T03:36:06.547Z,46.10
2022-12-14T03:38:43.827Z,45.87
2022-12-14T03:41:35.230Z,45.88
2022-12-14T03:44:11.481Z,46.07
2022-12-14T03:47:26.059Z,46.52
2022-12-14T03:50:09.135Z,46.08
2022-12-14T03:53:01.198Z,46.22
2022-12-14T03:55:40.187Z,46.23
2022-12-14T03:58:21.771Z,46.06
2022-12-14T04:01:06.356Z,45.96
2022-12-14T04:03:50.401Z,46.09
2022-12-14T04:06:38.085Z,46.23
2022-12-14T04:09:33.347Z,45.95
2022-12-14T04:12:26.538Z,45.96
2022-12-14T04:15:17.065Z,45.87
2022-12-14T04:18:05.402Z,45.94
2022-12-14T04:20:40.729Z,46.12
2022-12-14T04:23:14.393Z,45.96
2022-12-14T04:26:04.902Z,46.12
2022-12-14T04:28:58.722Z,46.00
2022-12-14T04:31:30.796Z,45.84
2022-12-14T04:33:59.606Z,45.94
2022-12-14T04:36:31.891Z,45.88
2022-12-14T04:39:07.046Z,46.09
2022-12-14T04:41:38.717Z,45.98
2022-12-14T04:44:15.747Z,45.64
2022-12-14T04:46:44.048Z,46.06
2022-12-14T04:49:36.884Z,45.86
2022-12-14T04:52:20.542Z,45.92
2022-12-14T04:54:59.610Z,46.00
2022-12-14T04:57:29.622Z,46.14
2022-12-14T04:59:56.461Z,46.02
2022-12-14T05:02:39.063Z,46.04
2022-12-14T05:05:17.618Z,45.72
2022-12-14T05:07:57.433Z,45.99
2022-12-14T05:10:53.750Z,45.72
2022-12-14T05:13:31.910Z,45.41
2022-12-14T05:15:59.461Z,45.68
2022-12-14T05:18:26.097Z,45.92
2022-12-14T05:20:52.667Z,45.67
2022-12-14T05:23:19.208Z,45.70
2022-12-14T05:25:45.732Z,45.53
2022-12-14T05:28:15.529Z,45.69
2022-12-14T05:30:41.960Z,45.66
2022-12-14T05:33:19.590Z,45.40
2022-12-14T05:35:46.114Z,45.63
2022-12-14T05:38:13.316Z,45.53
2022-12-14T05:40:39.930Z,45.45
2022-12-14T05:43:07.631Z,45.45
2022-12-14T05:45:34.153Z,45.46
2022-12-14T05:48:00.714Z,45.52
2022-12-14T05:50:27.206Z,45.51
2022-12-14T05:52:55.537Z,45.51
2022-12-14T05:55:21.864Z,45.55
2022-12-14T05:57:48.381Z,45.48
2022-12-14T06:00:15.402Z,45.55
2022-12-14T06:02:41.777Z,45.32
2022-12-14T06:05:08.591Z,45.66
2022-12-14T06:07:35.102Z,45.24
2022-12-14T06:10:01.444Z,45.28
2022-12-14T06:12:27.836Z,45.21
2022-12-14T06:14:54.279Z,45.72
2022-12-14T06:17:20.640Z,45.43
2022-12-14T06:19:49.904Z,45.41
2022-12-14T06:22:17.322Z,45.69
2022-12-14T06:24:43.683Z,45.64
2022-12-14T06:27:10.049Z,45.34
2022-12-14T06:29:36.390Z,45.58
2022-12-14T06:32:02.749Z,45.41
2022-12-14T06:34:29.113Z,45.21
2022-12-14T06:36:55.461Z,45.52
2022-12-14T06:39:21.834Z,45.43
2022-12-14T06:41:51.751Z,45.19
2022-12-14T06:44:18.291Z,45.56
2022-12-14T06:46:45.030Z,45.39
2022-12-14T06:49:14.830Z,45.16
2022-12-14T06:51:42.037Z,45.24
2022-12-14T06:54:10.697Z,45.00
2022-12-14T06:56:38.266Z,45.11
2022-12-14T06:59:05.380Z,44.90
2022-12-14T07:01:31.895Z,45.04
2022-12-14T07:03:59.639Z,45.08
2022-12-14T07:06:28.515Z,45.00
2022-12-14T07:08:57.004Z,44.89
2022-12-14T07:11:24.646Z,44.98
2022-12-14T07:13:51.194Z,44.97
2022-12-14T07:16:21.267Z,45.06
2022-12-14T07:18:48.175Z,44.96
2022-12-14T07:21:16.708Z,45.21
2022-12-14T07:23:44.710Z,45.17
2022-12-14T07:26:17.796Z,45.06
2022-12-14T07:28:45.723Z,45.26
2022-12-14T07:31:20.760Z,44.93
2022-12-14T07:33:47.642Z,45.38
2022-12-14T07:36:19.349Z,44.89
2022-12-14T07:38:48.171Z,45.05
2022-12-14T07:41:22.061Z,45.34
2022-12-14T07:43:51.797Z,45.15
2022-12-14T07:46:22.133Z,45.36
2022-12-14T07:48:51.749Z,45.04
2022-12-14T07:51:22.371Z,45.58
2022-12-14T07:53:50.152Z,45.27
2022-12-14T07:56:18.901Z,45.10
2022-12-14T07:58:45.413Z,45.35
2022-12-14T08:01:14.762Z,45.14
2022-12-14T08:03:44.125Z,45.24
2022-12-14T08:06:12.383Z,45.17
2022-12-14T08:08:39.208Z,45.14
2022-12-14T08:11:08.036Z,44.98
2022-12-14T08:13:34.976Z,45.13
2022-12-14T08:16:19.690Z,45.07
2022-12-14T08:18:46.137Z,45.48
2022-12-14T08:21:14.108Z,45.28
2022-12-14T08:23:41.578Z,45.56
2022-12-14T08:26:08.873Z,45.23
2022-12-14T08:28:36.132Z,45.32
2022-12-14T08:31:11.154Z,44.83
2022-12-14T08:33:39.041Z,45.34
2022-12-14T08:36:17.137Z,44.81
2022-12-14T08:38:45.417Z,45.03
2022-12-14T08:41:15.050Z,44.47
2022-12-14T08:43:41.792Z,44.58
2022-12-14T08:46:09.977Z,44.94
2022-12-14T08:48:36.833Z,44.97
2022-12-14T08:51:08.931Z,44.81
2022-12-14T08:53:36.997Z,45.08
2022-12-14T08:56:12.311Z,44.33
2022-12-14T08:58:39.991Z,44.67
2022-12-14T09:01:09.544Z,45.17
2022-12-14T09:03:36.124Z,44.93
2022-12-14T09:06:07.949Z,44.20
2022-12-14T09:08:35.366Z,44.41
2022-12-14T09:11:03.073Z,44.44
2022-12-14T09:13:30.235Z,44.60
2022-12-14T09:16:06.487Z,44.35
2022-12-14T09:18:34.483Z,44.53
2022-12-14T09:21:01.243Z,44.24
2022-12-14T09:23:32.371Z,44.27
2022-12-14T09:26:02.928Z,44.49
2022-12-14T09:28:30.734Z,44.12
2022-12-14T09:30:59.200Z,44.34
2022-12-14T09:33:29.794Z,43.82
2022-12-14T09:36:08.721Z,43.96
2022-12-14T09:38:38.079Z,44.12
2022-12-14T09:41:07.635Z,44.27
2022-12-14T09:43:41.067Z,43.97
2022-12-14T09:46:19.712Z,44.27
2022-12-14T09:48:47.398Z,44.42
2022-12-14T09:51:19.093Z,44.27
2022-12-14T09:53:48.923Z,43.79
2022-12-14T09:56:19.260Z,44.10
2022-12-14T09:58:54.929Z,43.61
2022-12-14T10:01:24.062Z,43.99
2022-12-14T10:04:05.732Z,43.52
2022-12-14T10:06:59.335Z,43.76
2022-12-14T10:09:47.526Z,43.71
2022-12-14T10:12:45.722Z,44.05
2022-12-14T10:15:29.251Z,43.62
2022-12-14T10:18:06.568Z,44.14
2022-12-14T10:20:49.024Z,43.85
2022-12-14T10:23:22.967Z,44.01
2022-12-14T10:25:54.167Z,44.34
2022-12-14T10:28:32.330Z,44.06
2022-12-14T10:31:02.196Z,43.94
2022-12-14T10:33:31.352Z,44.03
2022-12-14T10:36:18.223Z,43.77
2022-12-14T10:38:58.726Z,44.11
2022-12-14T10:41:37.269Z,44.03
2022-12-14T10:44:18.064Z,44.17
2022-12-14T10:46:57.114Z,44.46
2022-12-14T10:49:31.445Z,44.72
2022-12-14T10:52:03.959Z,44.97
2022-12-14T10:54:45.365Z,44.68
2022-12-14T10:57:18.390Z,44.44
2022-12-14T11:00:05.207Z,44.69
2022-12-14T11:02:36.113Z,44.94
2022-12-14T11:05:11.769Z,44.96
2022-12-14T11:07:40.291Z,44.63
2022-12-14T11:10:17.253Z,44.31
2022-12-14T11:12:55.033Z,44.47
2022-12-14T11:15:29.756Z,45.18
2022-12-14T11:18:02.706Z,44.30
2022-12-14T11:20:29.423Z,44.88
2022-12-14T11:22:59.105Z,44.98
2022-12-14T11:25:43.252Z,44.63
2022-12-14T11:28:25.716Z,44.41
2022-12-14T11:31:01.308Z,44.22
2022-12-14T11:33:49.764Z,44.55
2022-12-14T11:36:24.136Z,44.31
2022-12-14T11:39:02.967Z,44.01
2022-12-14T11:41:34.241Z,44.08
2022-12-14T11:44:16.462Z,44.21
2022-12-14T11:46:59.147Z,43.93
2022-12-14T11:49:37.646Z,43.82
2022-12-14T11:52:23.420Z,43.95
2022-12-14T11:54:52.707Z,43.85
2022-12-14T11:57:46.629Z,44.26
2022-12-14T12:00:55.555Z,43.45
2022-12-14T12:03:27.079Z,43.89
2022-12-14T12:05:54.828Z,43.73
2022-12-14T12:08:27.382Z,43.87
2022-12-14T12:11:01.912Z,43.79
2022-12-14T12:13:32.352Z,44.27
2022-12-14T12:16:15.774Z,44.04
2022-12-14T12:18:56.456Z,43.59
2022-12-14T12:21:32.160Z,43.67
2022-12-14T12:24:01.833Z,43.98
2022-12-14T12:27:11.946Z,43.69
2022-12-14T12:29:46.623Z,43.69
2022-12-14T12:32:23.443Z,43.79
2022-12-14T12:35:24.092Z,43.69
2022-12-14T12:37:58.709Z,43.62
2022-12-14T12:40:33.000Z,43.78
2022-12-14T12:43:07.325Z,44.01
2022-12-14T12:45:42.943Z,43.95
2022-12-14T12:48:20.930Z,44.00
2022-12-14T12:50:51.228Z,44.09
2022-12-14T12:53:41.329Z,43.64
2022-12-14T12:56:17.030Z,43.94
2022-12-14T12:58:52.149Z,43.98
2022-12-14T13:01:39.305Z,43.53
2022-12-14T13:04:11.475Z,43.85
2022-12-14T13:06:48.675Z,43.71
2022-12-14T13:09:27.259Z,43.87
2022-12-14T13:11:54.757Z,43.68
2022-12-14T13:14:43.192Z,43.04
2022-12-14T13:17:30.486Z,42.97
2022-12-14T13:19:59.025Z,43.58
2022-12-14T13:22:32.598Z,43.19
2022-12-14T13:25:07.785Z,43.07
2022-12-14T13:27:45.300Z,43.19
2022-12-14T13:30:11.788Z,43.34
2022-12-14T13:32:54.490Z,42.78
2022-12-14T13:35:51.424Z,42.98
2022-12-14T13:38:36.264Z,43.28
2022-12-14T13:41:29.628Z,42.56
2022-12-14T13:44:11.120Z,42.50
2022-12-14T13:46:39.272Z,43.04
2022-12-14T13:49:08.963Z,43.01
2022-12-14T13:51:40.463Z,42.83
2022-12-14T13:54:18.753Z,42.69
2022-12-14T13:56:45.845Z,42.59
2022-12-14T13:59:25.911Z,42.33
2022-12-14T14:01:55.640Z,42.72
2022-12-14T14:04:30.380Z,41.92
2022-12-14T14:07:22.542Z,41.93
2022-12-14T14:09:54.917Z,41.67
2022-12-14T14:12:35.489Z,41.80
2022-12-14T14:15:24.199Z,41.74
2022-12-14T14:17:53.266Z,42.41
2022-12-14T14:20:38.161Z,41.41
2022-12-14T14:23:29.143Z,41.92
2022-12-14T14:26:23.273Z,41.80
2022-12-14T14:29:05.114Z,42.36
2022-12-14T14:31:47.697Z,41.77
2022-12-14T14:34:23.783Z,42.21
2022-12-14T14:36:50.988Z,42.39
2022-12-14T14:42:24.235Z,42.15
2022-12-14T14:44:58.149Z,42.40
2022-12-14T14:47:35.748Z,42.05
2022-12-14T14:50:08.281Z,42.62
2022-12-14T14:52:37.573Z,42.75
2022-12-14T14:55:52.132Z,42.10
2022-12-14T14:58:23.531Z,42.43
2022-12-14T15:01:01.693Z,42.66
2022-12-14T15:03:34.912Z,42.07
2022-12-14T15:06:01.488Z,42.40
2022-12-14T15:08:43.325Z,42.30
2022-12-14T15:11:19.699Z,42.47
2022-12-14T15:13:53.159Z,42.69
2022-12-14T15:16:27.823Z,42.88
2022-12-14T15:18:54.833Z,43.29
2022-12-14T15:21:21.311Z,43.21
2022-12-14T15:23:53.759Z,43.09
2022-12-14T15:26:27.728Z,43.56
2022-12-14T15:28:58.377Z,42.70
2022-12-14T15:31:58.912Z,43.29
2022-12-14T15:34:26.445Z,43.03
2022-12-14T15:36:53.547Z,43.11
2022-12-14T15:39:39.744Z,42.96
2022-12-14T15:42:11.892Z,43.28
2022-12-14T15:44:43.682Z,42.96
2022-12-14T15:47:22.126Z,43.34
2022-12-14T15:49:48.477Z,43.06
2022-12-14T15:52:16.796Z,43.08
2022-12-14T15:54:43.359Z,43.95
2022-12-14T15:57:17.618Z,43.21
2022-12-14T15:59:46.228Z,43.71
2022-12-14T16:02:25.946Z,43.68
2022-12-14T16:04:53.219Z,43.68
2022-12-14T16:07:30.277Z,43.82
2022-12-14T16:10:01.405Z,43.73
2022-12-14T16:12:54.019Z,44.23
2022-12-14T16:15:24.054Z,43.97
2022-12-14T16:17:57.462Z,43.90
2022-12-14T16:20:32.999Z,43.86
2022-12-14T16:23:13.287Z,43.91
2022-12-14T16:25:50.546Z,44.33
2022-12-14T16:28:33.265Z,43.98
2022-12-14T16:31:11.854Z,44.42
2022-12-14T16:33:40.658Z,44.41
2022-12-14T16:36:13.373Z,44.41
2022-12-14T16:39:00.378Z,44.19
2022-12-14T16:41:39.974Z,44.57
2022-12-14T16:44:21.968Z,44.24
2022-12-14T16:47:00.430Z,44.68
2022-12-14T16:49:40.889Z,44.52
2022-12-14T16:52:10.210Z,44.53
2022-12-14T16:54:38.273Z,44.67
2022-12-14T16:57:17.596Z,44.72
2022-12-14T16:59:46.088Z,44.55
2022-12-14T17:02:28.202Z,45.09
2022-12-14T17:04:55.790Z,44.49
2022-12-14T17:07:25.484Z,44.50
2022-12-14T17:09:51.867Z,44.81
2022-12-14T17:12:18.960Z,45.00
2022-12-14T17:14:49.685Z,44.91
2022-12-14T17:17:25.444Z,44.84
2022-12-14T17:19:51.948Z,45.19
2022-12-14T17:22:24.751Z,44.91
2022-12-14T17:24:51.380Z,44.88
2022-12-14T17:27:22.010Z,45.01
2022-12-14T17:29:49.527Z,45.20
2022-12-14T17:32:17.437Z,45.00
2022-12-14T17:34:45.574Z,44.80
2022-12-14T17:37:17.375Z,45.13
2022-12-14T17:39:50.396Z,44.91
2022-12-14T17:42:20.375Z,44.87
2022-12-14T17:44:54.150Z,45.04
2022-12-14T17:47:20.555Z,45.07
2022-12-14T17:49:55.779Z,45.38
2022-12-14T17:52:35.596Z,45.11
2022-12-14T17:55:02.061Z,45.15
2022-12-14T17:57:29.163Z,44.88
2022-12-14T18:00:14.225Z,45.10
2022-12-14T18:02:43.495Z,44.92
2022-12-14T18:05:20.031Z,45.51
2022-12-14T18:07:46.503Z,44.96
2022-12-14T18:10:18.527Z,44.99
2022-12-14T18:12:45.234Z,45.32
2022-12-14T18:15:20.992Z,45.17
2022-12-14T18:17:49.445Z,45.41
2022-12-14T18:20:16.162Z,45.11
2022-12-14T18:22:42.744Z,45.14
2022-12-14T18:25:25.030Z,45.46
2022-12-14T18:27:51.755Z,45.46
2022-12-14T18:30:18.487Z,45.55
2022-12-14T18:32:45.146Z,45.63
2022-12-14T18:35:21.974Z,45.81
2022-12-14T18:37:49.598Z,45.57
2022-12-14T18:40:18.646Z,45.59
2022-12-14T18:42:45.415Z,45.50
2022-12-14T18:45:23.572Z,45.72
2022-12-14T18:47:50.988Z,45.66
2022-12-14T18:50:19.103Z,45.91
2022-12-14T18:52:46.716Z,45.60
2022-12-14T18:55:20.485Z,45.70
2022-12-14T18:57:48.650Z,45.66
2022-12-14T19:00:17.851Z,45.76
2022-12-14T19:02:46.887Z,45.51
2022-12-14T19:05:25.638Z,45.76
2022-12-14T19:07:52.882Z,45.78
2022-12-14T19:10:22.359Z,45.71
2022-12-14T19:12:50.379Z,45.97
2022-12-14T19:15:23.570Z,45.67
2022-12-14T19:17:50.265Z,45.72
2022-12-14T19:20:17.541Z,45.64
2022-12-14T19:22:44.834Z,45.56
2022-12-14T19:25:12.784Z,45.89
2022-12-14T19:28:25.744Z,45.89
2022-12-14T19:30:30.210Z,45.94
2022-12-14T19:32:58.427Z,45.90
2022-12-14T19:35:24.901Z,46.07
2022-12-14T19:37:51.918Z,46.16
2022-12-14T19:40:19.200Z,45.77
2022-12-14T19:42:48.626Z,45.97
2022-12-14T19:45:16.521Z,46.06
2022-12-14T19:47:44.171Z,45.94
2022-12-14T19:50:12.702Z,45.76
2022-12-14T19:52:39.299Z,45.75
2022-12-14T19:55:07.005Z,45.62
2022-12-14T19:57:33.546Z,45.71
2022-12-14T20:00:00.106Z,45.82
2022-12-14T20:02:29.822Z,45.83
2022-12-14T20:04:56.358Z,45.94
2022-12-14T20:07:22.743Z,45.86
2022-12-14T20:09:49.339Z,46.08
2022-12-14T20:12:15.755Z,45.99
2022-12-14T20:14:42.863Z,45.88
2022-12-14T20:17:11.135Z,45.85
2022-12-14T20:19:38.555Z,46.06
2022-12-14T20:22:06.065Z,45.76
2022-12-14T20:24:32.605Z,45.88
2022-12-14T20:27:01.594Z,46.22
2022-12-14T20:29:28.893Z,45.91
2022-12-14T20:31:55.495Z,45.81
2022-12-14T20:34:23.173Z,45.93
2022-12-14T20:36:49.639Z,45.79
2022-12-14T20:39:16.399Z,45.80
2022-12-14T20:41:42.743Z,45.87
2022-12-14T20:44:12.559Z,45.75
2022-12-14T20:46:45.200Z,45.96
2022-12-14T20:49:19.164Z,45.72
2022-12-14T20:51:47.568Z,45.54
2022-12-14T20:54:16.024Z,45.59
2022-12-14T20:56:43.386Z,45.69
2022-12-14T20:59:10.766Z,45.73
2022-12-14T21:01:39.064Z,45.84
2022-12-14T21:04:07.671Z,46.15
2022-12-14T21:06:41.980Z,45.98
2022-12-14T21:09:10.066Z,46.08
2022-12-14T21:12:05.292Z,46.34
2022-12-14T21:14:37.751Z,46.00
2022-12-14T21:17:05.285Z,46.35
2022-12-14T21:19:32.549Z,45.93
2022-12-14T21:21:59.011Z,46.09
2022-12-14T21:25:00.448Z,46.09
2022-12-14T21:27:21.754Z,46.23
2022-12-14T21:29:48.685Z,45.93
2022-12-14T21:32:16.625Z,45.96
2022-12-14T21:34:43.111Z,46.16
2022-12-14T21:37:10.170Z,46.15
2022-12-14T21:39:36.741Z,46.14
2022-12-14T21:42:13.802Z,46.66
2022-12-14T21:44:44.740Z,46.44
2022-12-14T21:47:13.981Z,46.54
2022-12-14T21:49:43.013Z,46.18
2022-12-14T21:52:12.460Z,46.67
2022-12-14T21:54:39.546Z,46.37
2022-12-14T21:57:24.528Z,46.99
2022-12-14T21:59:50.900Z,46.42
2022-12-14T22:02:22.934Z,46.80
2022-12-14T22:04:49.762Z,46.52
2022-12-14T22:07:17.883Z,46.24
2022-12-14T22:09:45.115Z,46.64
2022-12-14T22:12:17.464Z,46.40
2022-12-14T22:14:45.117Z,46.58
2022-12-14T22:17:14.475Z,46.57
2022-12-14T22:19:40.788Z,46.65
2022-12-14T22:22:12.060Z,46.23
2022-12-14T22:24:38.561Z,46.16
2022-12-14T22:27:05.099Z,46.31
2022-12-14T22:29:32.011Z,46.59
2022-12-14T22:31:58.421Z,46.46
2022-12-14T22:34:24.850Z,46.33
2022-12-14T22:36:52.458Z,46.21
2022-12-14T22:39:19.526Z,46.20
2022-12-14T22:41:46.346Z,46.22
2022-12-14T22:44:13.183Z,46.72
2022-12-14T22:46:40.507Z,45.93
2022-12-14T22:49:08.716Z,46.32
2022-12-14T22:51:35.258Z,46.85
2022-12-14T22:54:01.779Z,46.20
2022-12-14T22:56:35.898Z,46.72
2022-12-14T22:59:32.893Z,47.01
2022-12-14T23:01:59.730Z,46.57
2022-12-14T23:04:26.574Z,46.47
2022-12-14T23:06:54.097Z,46.84
2022-12-14T23:09:39.151Z,46.84
2022-12-14T23:12:24.769Z,46.41
2022-12-14T23:15:09.811Z,46.73
2022-12-14T23:17:55.059Z,46.33
2022-12-14T23:20:40.226Z,46.40
2022-12-14T23:23:27.246Z,46.42
2022-12-14T23:26:12.307Z,46.52
2022-12-14T23:28:57.542Z,46.63
2022-12-14T23:31:42.506Z,46.60
2022-12-14T23:34:27.159Z,46.75
2022-12-14T23:37:15.083Z,46.75
2022-12-14T23:40:05.681Z,46.04
2022-12-14T23:42:50.906Z,46.25
2022-12-14T23:45:35.936Z,46.58
2022-12-14T23:48:20.811Z,46.02
2022-12-14T23:51:05.516Z,46.94
2022-12-14T23:53:50.632Z,46.27
2022-12-14T23:56:35.768Z,46.68
2022-12-14T23:59:22.687Z,46.41
